Terminal Aerodrome Forecast
Issued by NWS

Home | Current Version | Previous Version | Text Only | Print | Product List | Glossary On
Versions: 1 2 3 4 5 6 7 8 9 10 11 12 13 14
000
FTUS41 KGYX 180101 AAA
TAFMHT
TAF AMD
KMHT 180101Z 1801/1824 11006KT 1 1/2SM -SN BKN008 OVC015
      TEMPO 1801/1805 1/2SM SN FZFG OVC004
     FM180500 09007KT 1SM -SN BR OVC004
     FM181300 04007KT 4SM -SHSN BR OVC012=

USA.gov is the U.S. government's official web portal to all federal, state and local government web resources and services.